Latest Coastal Weather Observations for Cerberus

IDV60701

Issued at 2:51 pm EST Thursday 26 May 2016 (issued every 10 minutes, with the page automatically refreshed every 10 minutes)

About coastal observations | Map of coastal stations | Coastal observations for VIC | Marine services | Other Formats
Station Details ID: 086361 Name: CERBERUS Lat: -38.36 Lon: 145.18 Height: 12.69 m
Data from the previous 72 hours. | See also: Recent months at Cerberus
Date/Time
EST
Temp

°C
Wind Pressure Rain
since 9am
mm
Weather Cloud Vis
km
Sea
Height
m
Swell
Dir
 
Speed
knots
Gust
knots
hPa Trend Height
m
Period
s
Dir
26/02:30pm 11.7 SSW 2 12 1002.4 - 8.6 - - - - - - -
26/02:00pm 11.3 SW 5 11 1002.4 - 8.6 - - - - - - -
26/01:30pm 11.7 SSW 10 16 1002.2 - 7.6 - - - - - - -
26/01:00pm 11.7 SSW 9 15 1002.1 - 7.6 - - - - - - -
26/12:30pm 11.7 SSW 10 18 1002.0 - 7.2 - - - - - - -
26/12:00pm 11.7 SSW 9 16 1002.0 - 6.8 Rain - - - - - -
26/11:30am 11.9 S 10 16 1002.1 - 6.4 - - - - - - -
26/11:00am 10.9 NW 6 13 1002.2 - 5.2 - - - - - - -
26/10:30am 10.8 NW 3 10 1002.5 - 3.4 - - - - - - -
26/10:00am 10.7 NNW 1 8 1002.7 - 2.4 - - - - - - -
26/09:30am 10.6 CALM 0 0 1002.8 - 1.2 - - - - - - -
26/09:00am 10.4 NNW 4 9 1002.9 - 7.0 Rain - - - - - -
26/08:30am 10.3 NNW 1 9 1003.0 - 3.8 - - - - - - -
26/08:00am 10.2 NNW 4 11 1002.8 - 3.0 - - - - - - -
26/07:30am 10.3 NNW 7 14 1002.9 - 2.8 - - - - - - -
26/07:00am 10.6 NNW 6 11 1003.0 - 2.6 - - - - - - -
26/06:30am 10.4 NNW 4 12 1003.0 - 2.6 - - - - - - -
26/06:00am 10.5 NNW 4 10 1003.1 - 2.6 - - - - - - -
26/05:30am 10.8 NNW 7 14 1003.5 - 2.6 - - - - - - -
26/05:00am 11.3 NNW 9 16 1003.6 - 2.6 - - - - - - -
26/04:30am 11.0 NNW 4 13 1003.6 - 2.6 - - - - - - -
26/04:00am 11.1 N 8 11 1003.9 - 2.6 - - - - - - -
26/03:30am 11.0 NNW 7 13 1004.0 - 2.6 - - - - - - -
26/03:00am 10.8 N 8 13 1004.4 - 2.6 Recent precip. - - - - - -
26/02:30am 11.1 NNW 6 14 1004.6 - 2.4 - - - - - - -
26/02:00am 11.4 N 9 17 1005.1 - 2.4 - - - - - - -
26/01:30am 11.2 N 10 19 1005.3 - 2.4 - - - - - - -
26/01:00am 10.9 N 10 19 1005.6 - 2.4 - - - - - - -
26/12:30am 10.7 N 10 22 1005.9 - 2.4 - - - - - - -
26/12:00am 10.9 N 13 24 1006.2 - 2.4 Recent precip. - - - - - -
 
Date/Time
EST
Temp

°C
Wind Pressure Rain
since 9am
mm
Weather Cloud Vis
km
Sea
Height
m
Swell
Dir
 
Speed
knots
Gust
knots
hPa Trend Height
m
Period
s
Dir
25/11:30pm 10.8 N 11 17 1007.1 - 2.4 - - - - - - -
25/11:00pm 11.0 N 10 19 1007.3 - 2.2 - - - - - - -
25/10:30pm 11.3 N 6 13 1007.5 - 1.4 - - - - - - -
25/10:00pm 11.4 NNW 10 18 1007.7 - 1.2 - - - - - - -
25/09:30pm 11.5 N 8 17 1007.6 - 1.0 - - - - - - -
25/09:00pm 11.9 NNW 10 17 1007.9 - 0.4 - - - - - - -
25/08:30pm 12.3 NNW 10 19 1008.1 - 0.4 - - - - - - -
25/08:00pm 12.5 NNW 12 21 1008.4 - 0.4 - - - - - - -
25/07:30pm 13.0 NNW 11 19 1008.3 - 0.4 - - - - - - -
25/07:00pm 13.4 NNW 12 20 1008.3 - 0.4 - - - - - - -
25/06:30pm 13.5 NNW 10 17 1008.6 - 0.4 - - - - - - -
25/06:00pm 13.5 NNW 13 24 1008.3 - 0.4 - - - - - - -
25/05:30pm 13.0 N 9 19 1008.3 - 0.4 - - - - - - -
25/05:00pm 12.7 N 7 13 1008.7 - 0.4 - - - - - - -
25/04:30pm 12.1 N 5 14 1008.9 - 0.4 - - - - - - -
25/04:00pm 12.8 N 7 17 1009.4 - 0.2 - - - - - - -
25/03:30pm 13.3 NNW 6 13 1009.6 - 0.2 - - - - - - -
25/03:00pm 14.3 NNW 15 24 1009.4 - 0.2 - - - - - - -
25/02:48pm 14.8 NNW 15 26 1009.3 - 0.2 - - - - - - -
25/02:30pm 15.6 NNW 14 25 1009.2 - 0.2 - - - - - - -
25/02:22pm 15.5 NNW 15 25 1009.0 - 0.2 - - - - - - -
25/02:00pm 15.6 NNW 12 22 1008.9 - 0.2 - - - - - - -
25/01:30pm 15.7 N 12 21 1009.4 - 0.0 - - - - - - -
25/01:00pm 15.8 N 10 15 1010.2 - 0.0 - - - - - - -
25/12:30pm 14.9 NNE 1 8 1010.9 - 0.0 - - - - - - -
25/12:00pm 14.5 N 5 10 1011.4 - 0.0 - - - - - - -
25/11:30am 14.1 N 6 13 1012.2 - 0.0 - - - - - - -
25/11:00am 14.1 N 8 13 1012.6 - 0.0 - - - - - - -
25/10:30am 13.5 N 9 17 1013.2 - 0.0 - - - - - - -
25/10:00am 13.7 NNW 9 18 1013.7 - 0.0 - - - - - - -
25/09:30am 13.1 NNW 9 15 1014.1 - 0.0 - - - - - - -
25/09:00am 12.4 N 7 12 1014.3 - 0.0 - - - - - - -
25/08:30am 11.9 N 5 12 1014.3 - 0.0 - - - - - - -
25/08:00am 11.7 N 6 12 1014.5 - 0.0 - - - - - - -
25/07:30am 11.2 N 5 11 1014.8 - 0.0 - - - - - - -
25/07:00am 10.4 CALM 0 5 1015.1 - 0.0 - - - - - - -
25/06:30am 8.3 CALM 0 0 1015.1 - 0.0 - - - - - - -
25/06:00am 8.5 CALM 0 0 1014.9 - 0.0 - - - - - - -
25/05:30am 8.1 CALM 0 0 1015.1 - 0.0 - - - - - - -
25/05:00am 8.1 CALM 0 0 1015.1 - 0.0 - - - - - - -
25/04:30am 8.5 CALM 0 0 1015.3 - 0.0 - - - - - - -
25/04:00am 8.1 CALM 0 0 1015.7 - 0.0 - - - - - - -
25/03:30am 8.1 CALM 0 0 1016.1 - 0.0 - - - - - - -
25/03:00am 7.3 CALM 0 0 1016.3 - 0.0 - - - - - - -
25/02:30am 8.3 CALM 0 0 1016.5 - 0.0 - - - - - - -
25/02:00am 8.0 CALM 0 0 1016.7 - 0.0 - - - - - - -
25/01:30am 7.2 CALM 0 0 1016.8 - 0.0 - - - - - - -
25/01:00am 7.1 CALM 0 0 1017.0 - 0.0 - - - - - - -
25/12:30am 7.2 CALM 0 0 1017.6 - 0.0 - - - - - - -
25/12:00am 6.2 CALM 0 0 1018.0 - 0.0 - - - - - - -
 
Date/Time
EST
Temp

°C
Wind Pressure Rain
since 9am
mm
Weather Cloud Vis
km
Sea
Height
m
Swell
Dir
 
Speed
knots
Gust
knots
hPa Trend Height
m
Period
s
Dir
24/11:30pm 7.0 CALM 0 0 1018.0 - 0.0 - - - - - - -
24/11:00pm 7.9 CALM 0 0 1018.1 - 0.0 - - - - - - -
24/10:30pm 5.7 CALM 0 0 1018.3 - 0.0 - - - - - - -
24/10:00pm 6.6 CALM 0 0 1018.7 - 0.0 - - - - - - -
24/09:30pm 7.1 CALM 0 0 1019.2 - 0.0 - - - - - - -
24/09:00pm 7.8 CALM 0 0 1019.3 - 0.0 - - - - - - -
24/08:30pm 8.7 CALM 0 0 1019.4 - 0.0 - - - - - - -
24/08:00pm 8.6 CALM 0 0 1019.5 - 0.0 - - - - - - -
24/07:30pm 8.8 CALM 0 0 1019.6 - 0.0 - - - - - - -
24/07:00pm 10.2 CALM 0 0 1019.4 - 0.0 - - - - - - -
24/06:30pm 9.6 CALM 0 0 1019.3 - 0.0 - - - - - - -
24/06:00pm 9.8 CALM 0 0 1019.2 - 0.0 - - - - - - -
24/05:30pm 11.2 CALM 0 0 1018.7 - 0.0 - - - - - - -
24/05:00pm 12.9 CALM 0 0 1018.8 - 0.0 - - - - - - -
24/04:30pm 13.5 CALM 0 6 1019.1 - 0.0 - - - - - - -
24/04:00pm 13.8 W 3 8 1019.1 - 0.0 - - - - - - -
24/03:30pm 13.9 W 2 8 1018.8 - 0.0 - - - - - - -
24/03:00pm 14.2 WSW 3 9 1018.9 - 0.0 - - - - - - -
24/02:30pm 14.5 W 2 7 1018.8 - 0.0 - - - - - - -
24/02:00pm 14.3 W 5 11 1018.8 - 0.0 - - - - - - -
24/01:30pm 14.5 W 6 11 1018.9 - 0.0 - - - - - - -
24/01:00pm 14.5 W 6 10 1019.0 - 0.0 - - - - - - -
24/12:30pm 14.1 WNW 6 11 1019.3 - 0.0 - - - - - - -
24/12:00pm 14.1 WNW 5 10 1019.6 - 0.0 - - - - - - -
24/11:30am 13.5 W 5 11 1020.2 - 0.0 - - - - - - -
24/11:00am 13.6 WNW 2 8 1020.3 - 0.0 - - - - - - -
24/10:30am 13.3 WNW 2 8 1020.4 - 0.0 - - - - - - -
24/10:00am 13.2 WNW 2 8 1020.4 - 0.0 - - - - - - -
24/09:30am 12.8 WNW 4 10 1020.1 - 0.0 - - - - - - -
24/09:00am 12.6 WNW 6 9 1020.0 - 1.6 - - - - - - -
24/08:30am 11.8 CALM 0 8 1020.0 - 1.6 - - - - - - -
24/08:00am 11.7 WNW 7 13 1019.8 - 1.6 - - - - - - -
24/07:30am 11.2 WNW 7 11 1019.3 - 1.6 - - - - - - -
24/07:00am 11.2 W 6 10 1019.1 - 1.6 - - - - - - -
24/06:30am 11.2 WNW 8 12 1018.5 - 1.6 - - - - - - -
24/06:00am 11.3 WNW 9 13 1018.1 - 1.6 - - - - - - -
24/05:30am 11.6 WNW 10 19 1018.1 - 1.6 - - - - - - -
24/05:00am 11.5 WNW 11 18 1017.9 - 1.6 - - - - - - -
24/04:30am 11.4 WNW 9 18 1017.8 - 1.6 - - - - - - -
24/04:00am 11.4 WNW 9 12 1017.8 - 1.6 - - - - - - -
24/03:30am 11.2 WNW 9 15 1017.7 - 1.6 - - - - - - -
24/03:00am 11.4 WNW 8 13 1017.8 - 1.6 - - - - - - -
24/02:30am 11.5 WNW 10 16 1017.9 - 1.6 - - - - - - -
24/02:00am 11.3 WNW 8 13 1017.9 - 1.6 - - - - - - -
24/01:30am 11.5 WNW 8 12 1018.0 - 1.6 - - - - - - -
24/01:00am 11.3 WNW 6 10 1018.0 - 1.6 - - - - - - -
24/12:30am 11.5 WNW 6 12 1018.3 - 1.6 - - - - - - -
24/12:00am 11.7 WNW 6 12 1018.4 - 1.6 - - - - - - -
 
Date/Time
EST
Temp

°C
Wind Pressure Rain
since 9am
mm
Weather Cloud Vis
km
Sea
Height
m
Swell
Dir
 
Speed
knots
Gust
knots
hPa Trend Height
m
Period
s
Dir
23/11:30pm 11.8 WNW 8 14 1018.5 - 1.6 - - - - - - -
23/11:00pm 11.7 WNW 6 11 1018.3 - 1.6 - - - - - - -
23/10:30pm 11.6 WNW 3 9 1018.5 - 1.6 - - - - - - -
23/10:00pm 11.6 WNW 8 14 1018.4 - 1.6 - - - - - - -
23/09:30pm 11.0 WNW 2 8 1018.4 - 1.6 - - - - - - -
23/09:00pm 10.8 NW 4 9 1018.4 - 1.6 - - - - - - -
23/08:30pm 10.9 NW 6 9 1018.3 - 1.6 - - - - - - -
23/08:00pm 11.1 NW 5 6 1018.2 - 1.6 - - - - - - -
23/07:30pm 11.4 WNW 6 9 1018.2 - 1.6 - - - - - - -
23/07:00pm 11.6 WNW 6 11 1018.0 - 1.6 - - - - - - -
23/06:30pm 11.9 WNW 7 11 1018.1 - 1.6 - - - - - - -
23/06:00pm 12.1 W 8 16 1017.9 - 1.6 - - - - - - -
23/05:30pm 12.1 W 6 12 1017.4 - 1.6 - - - - - - -
23/05:00pm 12.4 WNW 9 15 1017.0 - 1.6 - - - - - - -
23/04:30pm 11.7 WNW 11 17 1017.1 - 1.6 - - - - - - -
23/04:00pm 12.3 WNW 9 14 1017.1 - 1.6 - - - - - - -
23/03:30pm 12.1 WNW 8 15 1017.1 - 1.6 - - - - - - -
23/03:00pm 11.3 W 11 18 1016.9 - 1.6 Recent precip. - - - - - -

Other Formats:

Comma delimited format used in spreadsheet applications
http://www.bom.gov.au/fwo/IDV60701/IDV60701.94898.axf

JavaScript Object Notation format (JSON) in row-major order
http://www.bom.gov.au/fwo/IDV60701/IDV60701.94898.json